MSC Weser — CQIC7 — position and weather

sailwx.info

Track history (hours):
 
Tides and Currents Weather Stations Pressure Air Temp Water Temp Dewpoint Dewpoint Depression Visibility Wind Speed Wind Dir Waves Ship Positions

MSC Weser

Last reported at 2017-Nov-26 09:15 UTC. Time now 2017-Dec-16 19:08 UTC.
Position N 25°23' W 079°37'.
Warning: this ship's position is 20 days out of date.

Length 209 m; draft 7.4 m.

Type: Ship (hazmat cat A). MMSI: 255805923.

Date/timePositionNaut miles runAvg speedWind from/ knotsBaromVisibWave heightAir tempDewpointWater temp
2017-Nov-26 09:15N 25°23' W 079°37'413.4
2017-Nov-26 08:58N 25°26' W 079°37'613.3
2017-Nov-26 08:30N 25°32' W 079°37'713.3
2017-Nov-26 08:00N 25°39' W 079°37'612.8
2017-Nov-26 07:30N 25°45' W 079°37'611.4
2017-Nov-26 07:00N 25°51' W 079°37'5 9.8
2017-Nov-26 06:30N 25°56' W 079°37'5 9.6
2017-Nov-26 06:00N 26°01' W 079°37'5 9.4
2017-Nov-26 05:30N 26°05' W 079°38'713.9
2017-Nov-26 05:00N 26°06' W 079°46'714.3
2017-Nov-26 04:30N 26°06' W 079°54'612.5
2017-Nov-26 04:00N 26°05' W 080°01'5 9.4
2017-Nov-26 03:30N 26°06' W 080°06'1 2.8
2017-Nov-26 03:00N 26°04' W 080°07'0 0.3
2017-Nov-26 02:25N 26°04' W 080°07'0 0.0
2017-Nov-26 01:58N 26°04' W 080°07'0 0.0
2017-Nov-26 01:28N 26°04' W 080°07'0 0.0
2017-Nov-26 00:52N 26°04' W 080°07'0 0.0
2017-Nov-26 00:28N 26°04' W 080°07'0 0.0
2017-Nov-25 23:55N 26°04' W 080°07'0 0.0
2017-Nov-25 23:25N 26°04' W 080°07'0 0.0
2017-Nov-25 22:55N 26°04' W 080°07'0 0.0
2017-Nov-25 22:25N 26°04' W 080°07'0 0.0
2017-Nov-25 21:55N 26°04' W 080°07'0 0.0
2017-Nov-25 21:28N 26°04' W 080°07'0 0.0
2017-Nov-25 20:58N 26°04' W 080°07'0 0.0
2017-Nov-25 20:28N 26°04' W 080°07'0 0.0
2017-Nov-25 19:58N 26°04' W 080°07'0 0.0
2017-Nov-25 19:28N 26°04' W 080°07'0 0.0
2017-Nov-25 18:58N 26°04' W 080°07'0 0.0
2017-Nov-25 18:28N 26°04' W 080°07'0 0.0
2017-Nov-25 17:58N 26°04' W 080°07'0 0.0
2017-Nov-25 17:28N 26°04' W 080°07'0 0.0
2017-Nov-25 16:58N 26°04' W 080°07'0 0.0
2017-Nov-25 16:28N 26°04' W 080°07'0 0.0
2017-Nov-25 15:58N 26°04' W 080°07'0 0.0
2017-Nov-25 15:30N 26°04' W 080°07'0 0.0
2017-Nov-25 14:56N 26°04' W 080°07'0 0.0
2017-Nov-25 14:26N 26°04' W 080°07'0 0.0
2017-Nov-25 13:59N 26°04' W 080°07'0 0.0
2017-Nov-25 13:29N 26°04' W 080°07'0 0.0
2017-Nov-25 12:59N 26°04' W 080°07'0 0.0
2017-Nov-25 12:29N 26°04' W 080°07'0 0.0
2017-Nov-25 11:59N 26°04' W 080°07'0 0.0
2017-Nov-25 11:29N 26°04' W 080°07'0 0.0
2017-Nov-25 10:59N 26°04' W 080°07'0 0.0
2017-Nov-25 10:29N 26°04' W 080°07'0 0.1
2017-Nov-25 10:00N 26°04' W 080°07'1 3.0
2017-Nov-25 09:30N 26°06' W 080°06'4 8.8
2017-Nov-25 09:00N 26°05' W 080°02'611.4
2017-Nov-25 08:30N 26°05' W 079°55'611.8
2017-Nov-25 08:00N 26°05' W 079°49'611.8
2017-Nov-25 07:30N 26°06' W 079°42'15 9.9
2017-Nov-25 05:59N 25°51' W 079°37'612.7
2017-Nov-25 05:29N 25°45' W 079°37'612.7
2017-Nov-25 05:00N 25°39' W 079°37'612.9
2017-Nov-25 04:30N 25°33' W 079°37'  
Track history (hours):
 
Tides and Currents Weather Stations Pressure Air Temp Water Temp Dewpoint Dewpoint Depression Visibility Wind Speed Wind Dir Waves Ship Positions

MSC Weser

Last reported at 2017-Nov-26 09:15 UTC. Time now 2017-Dec-16 19:08 UTC.
Position N 25°23' W 079°37'.
Warning: this ship's position is 20 days out of date.

Length 209 m; draft 7.4 m.

Type: Ship (hazmat cat A). MMSI: 255805923.

Date/timePositionNaut miles runAvg speedWind from/ knotsBaromVisibWave heightAir tempDewpointWater temp
2017-Nov-26 09:15N 25°23' W 079°37'413.4
2017-Nov-26 08:58N 25°26' W 079°37'613.3
2017-Nov-26 08:30N 25°32' W 079°37'713.3
2017-Nov-26 08:00N 25°39' W 079°37'612.8
2017-Nov-26 07:30N 25°45' W 079°37'611.4
2017-Nov-26 07:00N 25°51' W 079°37'5 9.8
2017-Nov-26 06:30N 25°56' W 079°37'5 9.6
2017-Nov-26 06:00N 26°01' W 079°37'5 9.4
2017-Nov-26 05:30N 26°05' W 079°38'713.9
2017-Nov-26 05:00N 26°06' W 079°46'714.3
2017-Nov-26 04:30N 26°06' W 079°54'612.5
2017-Nov-26 04:00N 26°05' W 080°01'5 9.4
2017-Nov-26 03:30N 26°06' W 080°06'1 2.8
2017-Nov-26 03:00N 26°04' W 080°07'0 0.3
2017-Nov-26 02:25N 26°04' W 080°07'0 0.0
2017-Nov-26 01:58N 26°04' W 080°07'0 0.0
2017-Nov-26 01:28N 26°04' W 080°07'0 0.0
2017-Nov-26 00:52N 26°04' W 080°07'0 0.0
2017-Nov-26 00:28N 26°04' W 080°07'0 0.0
2017-Nov-25 23:55N 26°04' W 080°07'0 0.0
2017-Nov-25 23:25N 26°04' W 080°07'0 0.0
2017-Nov-25 22:55N 26°04' W 080°07'0 0.0
2017-Nov-25 22:25N 26°04' W 080°07'0 0.0
2017-Nov-25 21:55N 26°04' W 080°07'0 0.0
2017-Nov-25 21:28N 26°04' W 080°07'0 0.0
2017-Nov-25 20:58N 26°04' W 080°07'0 0.0
2017-Nov-25 20:28N 26°04' W 080°07'0 0.0
2017-Nov-25 19:58N 26°04' W 080°07'0 0.0
2017-Nov-25 19:28N 26°04' W 080°07'0 0.0
2017-Nov-25 18:58N 26°04' W 080°07'0 0.0
2017-Nov-25 18:28N 26°04' W 080°07'0 0.0
2017-Nov-25 17:58N 26°04' W 080°07'0 0.0
2017-Nov-25 17:28N 26°04' W 080°07'0 0.0
2017-Nov-25 16:58N 26°04' W 080°07'0 0.0
2017-Nov-25 16:28N 26°04' W 080°07'0 0.0
2017-Nov-25 15:58N 26°04' W 080°07'0 0.0
2017-Nov-25 15:30N 26°04' W 080°07'0 0.0
2017-Nov-25 14:56N 26°04' W 080°07'0 0.0
2017-Nov-25 14:26N 26°04' W 080°07'0 0.0
2017-Nov-25 13:59N 26°04' W 080°07'0 0.0
2017-Nov-25 13:29N 26°04' W 080°07'0 0.0
2017-Nov-25 12:59N 26°04' W 080°07'0 0.0
2017-Nov-25 12:29N 26°04' W 080°07'0 0.0
2017-Nov-25 11:59N 26°04' W 080°07'0 0.0
2017-Nov-25 11:29N 26°04' W 080°07'0 0.0
2017-Nov-25 10:59N 26°04' W 080°07'0 0.0
2017-Nov-25 10:29N 26°04' W 080°07'0 0.1
2017-Nov-25 10:00N 26°04' W 080°07'1 3.0
2017-Nov-25 09:30N 26°06' W 080°06'4 8.8
2017-Nov-25 09:00N 26°05' W 080°02'611.4
2017-Nov-25 08:30N 26°05' W 079°55'611.8
2017-Nov-25 08:00N 26°05' W 079°49'611.8
2017-Nov-25 07:30N 26°06' W 079°42'15 9.9
2017-Nov-25 05:59N 25°51' W 079°37'612.7
2017-Nov-25 05:29N 25°45' W 079°37'612.7
2017-Nov-25 05:00N 25°39' W 079°37'612.9
2017-Nov-25 04:30N 25°33' W 079°37'  

Dump ship's entire track history